createdAt,value
2022-12-17T00:01:07.295Z,93.22
2022-12-17T00:03:33.829Z,89.90
2022-12-17T00:06:00.672Z,94.53
2022-12-17T00:08:27.172Z,94.20
2022-12-17T00:10:53.462Z,97.38
2022-12-17T00:13:19.788Z,88.72
2022-12-17T00:15:46.259Z,93.95
2022-12-17T00:18:12.612Z,88.53
2022-12-17T00:20:38.938Z,94.05
2022-12-17T00:23:05.232Z,88.63
2022-12-17T00:25:31.550Z,84.93
2022-12-17T00:27:57.851Z,89.18
2022-12-17T00:30:24.179Z,87.18
2022-12-17T00:32:50.572Z,87.20
2022-12-17T00:35:16.976Z,88.35
2022-12-17T00:37:43.358Z,91.40
2022-12-17T00:40:09.727Z,90.20
2022-12-17T00:42:36.229Z,89.10
2022-12-17T00:45:02.562Z,86.43
2022-12-17T00:47:28.851Z,88.10
2022-12-17T00:49:56.171Z,93.25
2022-12-17T00:52:22.603Z,89.97
2022-12-17T00:54:48.930Z,87.35
2022-12-17T00:57:15.195Z,86.82
2022-12-17T00:59:41.466Z,84.38
2022-12-17T01:02:07.804Z,84.68
2022-12-17T01:04:34.218Z,90.07
2022-12-17T01:07:00.503Z,85.07
2022-12-17T01:09:26.823Z,89.50
2022-12-17T01:11:53.112Z,87.40
2022-12-17T01:14:23.017Z,86.25
2022-12-17T01:16:49.511Z,90.43
2022-12-17T01:19:16.085Z,89.88
2022-12-17T01:21:42.367Z,85.85
2022-12-17T01:24:08.687Z,89.78
2022-12-17T01:26:35.115Z,88.40
2022-12-17T01:29:01.369Z,83.30
2022-12-17T01:31:32.927Z,83.13
2022-12-17T01:34:01.096Z,86.10
2022-12-17T01:36:27.373Z,86.43
2022-12-17T01:38:53.907Z,85.22
2022-12-17T01:41:20.214Z,86.03
2022-12-17T01:43:46.522Z,86.80
2022-12-17T01:46:12.900Z,85.10
2022-12-17T01:48:39.332Z,79.35
2022-12-17T01:51:05.853Z,83.28
2022-12-17T01:53:32.229Z,84.32
2022-12-17T01:55:58.620Z,81.85
2022-12-17T01:58:24.894Z,86.88
2022-12-17T02:00:51.315Z,84.47
2022-12-17T02:03:17.724Z,80.60
2022-12-17T02:05:44.245Z,81.63
2022-12-17T02:08:10.745Z,84.10
2022-12-17T02:10:41.194Z,80.68
2022-12-17T02:13:09.392Z,83.15
2022-12-17T02:15:35.682Z,84.15
2022-12-17T02:18:01.963Z,86.60
2022-12-17T02:20:28.360Z,80.03
2022-12-17T02:22:54.640Z,76.95
2022-12-17T02:25:21.155Z,82.32
2022-12-17T02:27:47.405Z,80.35
2022-12-17T02:30:13.848Z,79.85
2022-12-17T02:32:40.182Z,80.85
2022-12-17T02:35:06.656Z,75.03
2022-12-17T02:37:33.049Z,78.32
2022-12-17T02:39:59.304Z,79.13
2022-12-17T02:42:25.566Z,82.95
2022-12-17T02:44:51.904Z,77.68
2022-12-17T02:47:18.167Z,83.22
2022-12-17T02:49:44.435Z,79.47
2022-12-17T02:52:10.687Z,78.53
2022-12-17T02:54:36.950Z,83.80
2022-12-17T02:57:03.244Z,79.65
2022-12-17T02:59:29.576Z,80.90
2022-12-17T03:01:56.281Z,77.38
2022-12-17T03:04:22.885Z,79.80
2022-12-17T03:06:49.267Z,78.20
2022-12-17T03:09:15.504Z,80.20
2022-12-17T03:11:41.807Z,79.15
2022-12-17T03:14:08.100Z,75.32
2022-12-17T03:16:37.785Z,77.32
2022-12-17T03:19:04.551Z,75.20
2022-12-17T03:21:30.980Z,76.78
2022-12-17T03:23:57.233Z,76.97
2022-12-17T03:26:23.515Z,77.43
2022-12-17T03:28:49.833Z,76.30
2022-12-17T03:31:16.306Z,86.72
2022-12-17T03:33:42.765Z,78.57
2022-12-17T03:36:09.012Z,76.30
2022-12-17T03:38:35.378Z,72.47
2022-12-17T03:41:01.709Z,77.82
2022-12-17T03:43:28.129Z,77.70
2022-12-17T03:45:54.504Z,75.03
2022-12-17T03:48:20.937Z,74.90
2022-12-17T03:50:47.266Z,76.55
2022-12-17T03:53:13.699Z,81.05
2022-12-17T03:55:40.094Z,78.13
2022-12-17T03:58:06.500Z,78.97
2022-12-17T04:00:32.834Z,76.68
2022-12-17T04:02:59.297Z,76.78
2022-12-17T04:05:25.723Z,74.55
2022-12-17T04:07:52.040Z,75.10
2022-12-17T04:10:18.388Z,73.47
2022-12-17T04:12:44.971Z,76.78
2022-12-17T04:15:11.280Z,74.60
2022-12-17T04:17:37.590Z,74.70
2022-12-17T04:20:03.964Z,73.80
2022-12-17T04:22:30.314Z,72.75
2022-12-17T04:24:56.652Z,77.93
2022-12-17T04:27:22.984Z,71.25
2022-12-17T04:29:49.377Z,79.57
2022-12-17T04:32:15.726Z,74.22
2022-12-17T04:34:41.999Z,77.68
2022-12-17T04:37:08.432Z,76.90
2022-12-17T04:39:34.772Z,72.45
2022-12-17T04:42:01.068Z,76.30
2022-12-17T04:44:27.347Z,75.30
2022-12-17T04:46:53.620Z,80.45
2022-12-17T04:49:19.878Z,74.28
2022-12-17T04:51:46.265Z,78.60
2022-12-17T04:54:12.592Z,78.60
2022-12-17T04:56:39.265Z,74.88
2022-12-17T04:59:05.561Z,77.32
2022-12-17T05:01:31.991Z,79.28
2022-12-17T05:03:58.400Z,80.22
2022-12-17T05:06:24.723Z,80.03
2022-12-17T05:08:51.290Z,80.20
2022-12-17T05:11:17.597Z,82.88
2022-12-17T05:13:44.185Z,78.05
2022-12-17T05:16:10.550Z,86.40
2022-12-17T05:18:36.990Z,85.28
2022-12-17T05:21:03.309Z,81.47
2022-12-17T05:23:29.731Z,85.47
2022-12-17T05:25:56.082Z,84.47
2022-12-17T05:28:22.379Z,81.13
2022-12-17T05:30:48.766Z,86.00
2022-12-17T05:33:15.312Z,84.10
2022-12-17T05:35:41.706Z,86.03
2022-12-17T05:38:08.156Z,83.40
2022-12-17T05:40:34.467Z,81.63
2022-12-17T05:43:00.993Z,86.55
2022-12-17T05:45:27.256Z,83.43
2022-12-17T05:47:53.544Z,86.60
2022-12-17T05:50:19.827Z,80.88
2022-12-17T05:52:46.381Z,81.40
2022-12-17T05:55:12.719Z,80.18
2022-12-17T05:57:39.144Z,82.20
2022-12-17T06:00:05.449Z,83.47
2022-12-17T06:02:31.836Z,86.63
2022-12-17T06:05:02.083Z,81.63
2022-12-17T06:07:28.935Z,88.70
2022-12-17T06:09:55.223Z,79.97
2022-12-17T06:12:21.659Z,84.35
2022-12-17T06:14:47.904Z,82.13
2022-12-17T06:17:14.259Z,84.20
2022-12-17T06:19:40.642Z,83.22
2022-12-17T06:22:06.959Z,84.90
2022-12-17T06:24:33.223Z,85.30
2022-12-17T06:26:59.599Z,81.97
2022-12-17T06:29:26.051Z,82.97
2022-12-17T06:31:52.457Z,78.18
2022-12-17T06:34:18.872Z,82.13
2022-12-17T06:36:45.255Z,84.07
2022-12-17T06:39:11.990Z,80.55
2022-12-17T06:41:38.352Z,88.43
2022-12-17T06:44:04.685Z,82.38
2022-12-17T06:46:31.013Z,85.80
2022-12-17T06:48:57.405Z,79.63
2022-12-17T06:51:23.820Z,81.78
2022-12-17T06:53:50.169Z,86.70
2022-12-17T06:56:16.526Z,86.22
2022-12-17T06:58:42.849Z,84.63
2022-12-17T07:01:09.273Z,88.45
2022-12-17T07:03:35.958Z,88.40
2022-12-17T07:06:02.544Z,82.95
2022-12-17T07:08:28.997Z,84.85
2022-12-17T07:10:55.247Z,87.68
2022-12-17T07:13:23.338Z,83.82
2022-12-17T07:15:49.780Z,87.32
2022-12-17T07:18:16.153Z,79.97
2022-12-17T07:20:42.437Z,80.05
2022-12-17T07:23:08.753Z,78.30
2022-12-17T07:25:35.036Z,85.70
2022-12-17T07:28:01.323Z,81.25
2022-12-17T07:30:27.660Z,85.13
2022-12-17T07:32:54.005Z,83.63
2022-12-17T07:35:20.585Z,81.03
2022-12-17T07:37:47.184Z,81.50
2022-12-17T07:40:13.623Z,82.47
2022-12-17T07:42:39.990Z,81.35
2022-12-17T07:45:06.339Z,83.38
2022-12-17T07:47:32.680Z,80.00
2022-12-17T07:50:00.153Z,79.40
2022-12-17T07:52:26.687Z,82.45
2022-12-17T07:54:53.032Z,75.63
2022-12-17T07:57:19.402Z,81.93
2022-12-17T07:59:45.841Z,78.70
2022-12-17T08:02:12.556Z,77.93
2022-12-17T08:04:38.962Z,77.53
2022-12-17T08:07:10.187Z,75.60
2022-12-17T08:09:38.541Z,77.60
2022-12-17T08:12:04.862Z,76.05
2022-12-17T08:14:31.333Z,77.53
2022-12-17T08:16:57.712Z,73.65
2022-12-17T08:19:24.069Z,74.43
2022-12-17T08:21:50.415Z,73.10
2022-12-17T08:24:16.893Z,79.30
2022-12-17T08:26:47.863Z,73.70
2022-12-17T08:29:14.743Z,71.63
2022-12-17T08:31:41.043Z,77.47
2022-12-17T08:34:08.230Z,69.75
2022-12-17T08:36:34.803Z,80.22
2022-12-17T08:39:01.174Z,71.20
2022-12-17T08:41:27.583Z,78.63
2022-12-17T08:43:53.972Z,70.68
2022-12-17T08:46:20.342Z,67.65
2022-12-17T08:48:46.806Z,67.63
2022-12-17T08:51:13.321Z,71.80
2022-12-17T08:53:39.971Z,69.55
2022-12-17T08:56:06.421Z,68.18
2022-12-17T08:58:32.985Z,70.88
2022-12-17T09:00:59.361Z,66.53
2022-12-17T09:03:25.775Z,66.90
2022-12-17T09:08:21.791Z,61.40
2022-12-17T09:10:48.075Z,70.53
2022-12-17T09:13:14.523Z,65.43
2022-12-17T09:15:40.796Z,59.65
2022-12-17T09:18:07.132Z,63.53
2022-12-17T09:20:33.369Z,71.63
2022-12-17T09:22:59.743Z,63.72
2022-12-17T09:28:01.125Z,66.43
2022-12-17T09:30:27.444Z,72.03
2022-12-17T09:32:53.725Z,74.10
2022-12-17T09:35:20.215Z,67.68
2022-12-17T09:37:46.620Z,67.97
2022-12-17T09:40:12.876Z,66.25
2022-12-17T09:42:39.425Z,67.28
2022-12-17T09:45:05.724Z,69.20
2022-12-17T09:47:32.033Z,66.43
2022-12-17T09:49:58.351Z,65.05
2022-12-17T09:52:24.627Z,64.63
2022-12-17T09:54:53.050Z,66.43
2022-12-17T09:57:22.795Z,75.07
2022-12-17T09:59:49.075Z,67.43
2022-12-17T10:02:15.678Z,119.05
2022-12-17T10:04:42.199Z,120.88
2022-12-17T10:07:08.827Z,145.13
2022-12-17T10:09:35.074Z,110.97
2022-12-17T10:12:01.303Z,110.35
2022-12-17T10:14:27.600Z,109.50
2022-12-17T10:16:53.879Z,98.70
2022-12-17T10:19:20.306Z,101.30
2022-12-17T10:21:46.602Z,114.07
2022-12-17T10:24:18.370Z,111.38
2022-12-17T10:26:44.878Z,127.25
2022-12-17T10:29:11.285Z,136.98
2022-12-17T10:31:37.753Z,126.95
2022-12-17T10:34:04.245Z,116.70
2022-12-17T10:36:30.690Z,120.15
2022-12-17T10:38:57.064Z,113.30
2022-12-17T10:41:23.342Z,111.28
2022-12-17T10:43:49.934Z,112.55
2022-12-17T10:48:45.593Z,101.50
2022-12-17T10:51:11.835Z,101.35
2022-12-17T11:04:01.574Z,96.85
2022-12-17T11:06:27.864Z,93.65
2022-12-17T11:08:54.197Z,92.18
2022-12-17T11:11:20.525Z,92.65
2022-12-17T11:13:46.889Z,90.45
2022-12-17T11:16:13.355Z,86.13
2022-12-17T11:18:39.745Z,87.47
2022-12-17T11:21:06.011Z,85.75
2022-12-17T11:23:32.332Z,85.65
2022-12-17T11:25:58.639Z,84.45
2022-12-17T11:28:25.017Z,78.57
2022-12-17T11:30:51.331Z,84.20
2022-12-17T11:33:17.700Z,80.18
2022-12-17T11:35:43.927Z,79.70
2022-12-17T11:38:10.228Z,78.07
2022-12-17T11:40:36.576Z,75.00
2022-12-17T11:43:03.258Z,78.75
2022-12-17T11:45:29.685Z,77.85
2022-12-17T11:47:59.411Z,76.90
2022-12-17T11:50:26.203Z,82.25
2022-12-17T11:52:52.677Z,76.30
2022-12-17T11:55:18.944Z,78.90
2022-12-17T11:57:45.292Z,78.30
2022-12-17T12:00:11.636Z,72.88
2022-12-17T12:02:38.076Z,78.38
2022-12-17T12:05:10.671Z,81.93
2022-12-17T12:07:37.002Z,76.35
2022-12-17T12:10:03.463Z,69.43
2022-12-17T12:12:29.879Z,74.38
2022-12-17T12:14:56.259Z,69.45
2022-12-17T12:17:22.553Z,68.38
2022-12-17T12:22:30.336Z,145.20
2022-12-17T12:24:57.060Z,247.48
2022-12-17T12:27:23.428Z,255.98
2022-12-17T12:37:47.650Z,203.20
2022-12-17T12:40:13.904Z,191.13
2022-12-17T12:42:40.296Z,175.05
2022-12-17T12:45:06.970Z,171.25
2022-12-17T12:47:36.944Z,177.55
2022-12-17T12:50:03.125Z,214.38
2022-12-17T12:52:29.295Z,250.10
2022-12-17T12:55:14.265Z,285.10
2022-12-17T12:57:40.521Z,447.17
2022-12-17T13:00:06.708Z,701.90
2022-12-17T13:02:33.045Z,982.92
2022-12-17T13:04:59.581Z,1169.68
2022-12-17T13:07:27.426Z,1200.43
2022-12-17T13:09:53.895Z,1184.63
2022-12-17T13:12:20.179Z,1170.72
2022-12-17T13:14:46.510Z,1163.82
2022-12-17T13:17:12.776Z,1157.07
2022-12-17T13:19:39.042Z,1048.70
2022-12-17T13:22:05.294Z,897.10
2022-12-17T13:24:31.615Z,799.72
2022-12-17T13:26:57.842Z,784.08
2022-12-17T13:29:24.135Z,803.17
2022-12-17T13:31:50.480Z,793.15
2022-12-17T13:34:17.020Z,795.50
2022-12-17T13:36:43.740Z,806.45
2022-12-17T13:39:10.161Z,815.85
2022-12-17T13:41:54.925Z,815.08
2022-12-17T13:44:21.316Z,805.17
2022-12-17T13:46:48.087Z,782.25
2022-12-17T13:49:15.189Z,781.47
2022-12-17T13:51:41.391Z,761.90
2022-12-17T13:54:07.993Z,750.17
2022-12-17T13:56:34.846Z,738.30
2022-12-17T13:59:07.743Z,738.20
2022-12-17T14:01:35.458Z,718.22
2022-12-17T14:04:06.672Z,706.70
2022-12-17T14:06:33.567Z,696.03
2022-12-17T14:08:59.845Z,686.42
2022-12-17T14:11:26.446Z,691.58
2022-12-17T14:13:52.925Z,666.85
2022-12-17T14:16:19.261Z,676.67
2022-12-17T14:18:45.750Z,664.17
2022-12-17T14:31:48.744Z,550.15
2022-12-17T14:36:54.717Z,527.95
2022-12-17T14:39:21.066Z,513.83
2022-12-17T14:44:22.527Z,517.70
2022-12-17T14:49:24.008Z,491.48
2022-12-17T14:51:50.285Z,469.90
2022-12-17T14:54:16.752Z,462.00
2022-12-17T14:56:43.060Z,451.23
2022-12-17T14:59:09.372Z,563.75
2022-12-17T15:12:16.724Z,569.92
2022-12-17T15:14:43.135Z,553.95
2022-12-17T15:17:09.695Z,543.80
2022-12-17T15:19:36.302Z,544.88
2022-12-17T15:22:02.904Z,540.70
2022-12-17T15:24:29.261Z,597.55
2022-12-17T15:26:55.628Z,746.72
2022-12-17T15:29:22.174Z,737.55
2022-12-17T15:42:16.748Z,588.67
2022-12-17T15:44:43.056Z,571.45
2022-12-17T15:47:09.390Z,564.53
2022-12-17T15:49:35.757Z,552.38
2022-12-17T15:52:02.516Z,544.75
2022-12-17T15:54:28.895Z,525.88
2022-12-17T15:56:55.717Z,518.17
2022-12-17T15:59:22.358Z,551.53
2022-12-17T16:01:48.779Z,580.97
2022-12-17T16:04:20.300Z,573.75
2022-12-17T16:06:51.429Z,569.25
2022-12-17T16:09:18.054Z,558.22
2022-12-17T16:11:44.783Z,552.90
2022-12-17T16:14:11.393Z,527.75
2022-12-17T16:16:38.331Z,516.30
2022-12-17T16:19:05.211Z,510.23
2022-12-17T16:21:31.753Z,503.27
2022-12-17T16:23:58.093Z,730.70
2022-12-17T16:26:26.363Z,788.88
2022-12-17T16:28:53.249Z,753.85
2022-12-17T16:31:20.107Z,722.33
2022-12-17T16:33:47.024Z,695.50
2022-12-17T16:36:13.832Z,681.00
2022-12-17T16:38:40.614Z,661.53
2022-12-17T16:41:07.074Z,651.42
2022-12-17T16:43:33.999Z,635.63
2022-12-17T16:46:00.454Z,620.28
2022-12-17T16:48:27.231Z,612.00
2022-12-17T16:50:54.197Z,601.03
2022-12-17T16:58:28.816Z,636.38
2022-12-17T17:06:12.820Z,834.60
2022-12-17T17:08:40.060Z,808.55
2022-12-17T17:11:06.924Z,774.25
2022-12-17T17:13:33.226Z,773.53
2022-12-17T17:15:59.557Z,757.03
2022-12-17T17:18:26.325Z,727.88
2022-12-17T17:20:53.618Z,723.35
2022-12-17T17:25:57.853Z,690.53
2022-12-17T17:28:25.362Z,683.22
2022-12-17T17:30:52.592Z,737.40
2022-12-17T17:33:19.241Z,755.58
2022-12-17T17:35:46.188Z,796.90
2022-12-17T17:38:12.759Z,846.13
2022-12-17T17:40:39.198Z,845.22
2022-12-17T17:43:06.209Z,809.03
2022-12-17T17:45:32.562Z,804.92
2022-12-17T17:47:58.894Z,776.42
2022-12-17T17:50:25.557Z,731.28
2022-12-17T17:52:52.139Z,714.47
2022-12-17T17:55:18.505Z,708.67
2022-12-17T17:57:44.979Z,704.10
2022-12-17T18:00:11.395Z,683.50
2022-12-17T18:02:38.450Z,668.13
2022-12-17T18:05:05.251Z,661.15
2022-12-17T18:07:31.632Z,643.60
2022-12-17T18:09:58.192Z,640.50
2022-12-17T18:12:24.751Z,627.70
2022-12-17T18:15:13.790Z,612.35
2022-12-17T18:17:37.562Z,603.40
2022-12-17T18:22:44.887Z,620.75
2022-12-17T18:27:53.866Z,644.95
2022-12-17T18:30:20.845Z,641.10
2022-12-17T18:32:47.604Z,629.85
2022-12-17T18:35:14.139Z,614.92
2022-12-17T18:37:40.455Z,594.83
2022-12-17T18:40:06.857Z,579.53
2022-12-17T18:42:33.387Z,576.03
2022-12-17T18:44:59.818Z,561.83
2022-12-17T18:47:26.226Z,551.92
2022-12-17T18:49:53.062Z,532.22
2022-12-17T18:52:19.309Z,529.60
2022-12-17T19:00:09.888Z,493.38
2022-12-17T19:02:36.683Z,485.23
2022-12-17T19:07:38.916Z,459.13
2022-12-17T19:10:05.216Z,446.30
2022-12-17T19:12:31.856Z,444.60
2022-12-17T19:14:58.191Z,427.00
2022-12-17T19:17:24.632Z,428.00
2022-12-17T19:19:51.165Z,414.52
2022-12-17T19:22:17.458Z,403.13
2022-12-17T19:24:43.749Z,398.95
2022-12-17T19:27:10.473Z,596.20
2022-12-17T19:29:36.823Z,451.13
2022-12-17T19:32:03.220Z,438.70
2022-12-17T19:34:29.740Z,427.63
2022-12-17T19:36:56.150Z,421.30
2022-12-17T19:44:26.916Z,401.80
2022-12-17T19:46:53.504Z,410.58
2022-12-17T19:51:49.006Z,391.33
2022-12-17T19:59:29.943Z,348.10
2022-12-17T20:07:17.947Z,417.40
2022-12-17T20:09:44.244Z,435.42
2022-12-17T20:12:10.873Z,423.25
2022-12-17T20:14:37.307Z,403.42
2022-12-17T20:17:03.977Z,389.50
2022-12-17T20:19:30.661Z,448.05
2022-12-17T20:21:57.189Z,453.35
2022-12-17T20:24:30.516Z,438.92
2022-12-17T20:26:57.923Z,430.45
2022-12-17T20:29:24.399Z,422.00
2022-12-17T20:31:51.489Z,404.13
2022-12-17T20:34:17.839Z,402.55
2022-12-17T20:36:44.530Z,385.63
2022-12-17T20:39:10.925Z,372.38
2022-12-17T20:46:54.990Z,356.52
2022-12-17T20:49:21.233Z,383.67
2022-12-17T20:51:48.065Z,452.90
2022-12-17T20:54:14.661Z,448.10
2022-12-17T20:56:41.523Z,435.83
2022-12-17T20:59:07.846Z,434.48
2022-12-17T21:01:34.662Z,419.05
2022-12-17T21:04:01.012Z,433.75
2022-12-17T21:06:27.549Z,427.90
2022-12-17T21:08:53.890Z,424.52
2022-12-17T21:11:20.939Z,422.65
2022-12-17T21:13:47.572Z,414.80
2022-12-17T21:16:14.198Z,454.50
2022-12-17T21:18:41.213Z,481.65
2022-12-17T21:21:07.736Z,475.42
2022-12-17T21:23:34.440Z,467.55
2022-12-17T21:26:01.013Z,459.98
2022-12-17T21:28:28.174Z,466.88
2022-12-17T21:30:54.868Z,454.13
2022-12-17T21:33:21.767Z,476.85
2022-12-17T21:35:48.676Z,536.83
2022-12-17T21:38:14.992Z,546.58
2022-12-17T21:40:41.286Z,521.97
2022-12-17T21:43:07.978Z,517.53
2022-12-17T21:45:34.356Z,506.95
2022-12-17T21:48:01.082Z,503.77
2022-12-17T21:50:27.505Z,496.55
2022-12-17T21:52:53.854Z,489.58
2022-12-17T21:55:20.806Z,495.52
2022-12-17T21:57:47.824Z,506.58
2022-12-17T22:00:14.318Z,666.70
2022-12-17T22:02:41.022Z,618.00
2022-12-17T22:05:07.770Z,616.38
2022-12-17T22:07:35.474Z,607.58
2022-12-17T22:10:35.723Z,596.45
2022-12-17T22:12:56.324Z,573.10
2022-12-17T22:15:22.989Z,572.58
2022-12-17T22:20:21.072Z,555.50
2022-12-17T22:22:47.676Z,555.30
2022-12-17T22:25:14.140Z,559.90
2022-12-17T22:27:40.530Z,660.45
2022-12-17T22:30:06.887Z,635.00
2022-12-17T22:32:33.120Z,618.30
2022-12-17T22:35:54.134Z,607.75
2022-12-17T22:39:44.839Z,599.97
2022-12-17T22:44:31.721Z,599.90
2022-12-17T22:44:42.779Z,695.70
2022-12-17T22:46:06.031Z,770.25
2022-12-17T22:48:33.096Z,777.38
2022-12-17T22:51:05.152Z,759.63
2022-12-17T22:53:46.012Z,759.35
2022-12-17T22:56:31.397Z,816.95
2022-12-17T22:58:59.303Z,825.78
2022-12-17T23:01:26.048Z,801.25
2022-12-17T23:03:52.897Z,794.28
2022-12-17T23:06:19.505Z,789.15
2022-12-17T23:08:45.771Z,804.92
2022-12-17T23:11:18.118Z,783.30
2022-12-17T23:13:44.430Z,773.53
2022-12-17T23:16:12.029Z,753.50
2022-12-17T23:18:38.538Z,753.20
2022-12-17T23:21:04.912Z,731.85
2022-12-17T23:23:31.996Z,723.28
2022-12-17T23:25:58.669Z,709.05
2022-12-17T23:28:25.000Z,694.40
2022-12-17T23:30:52.037Z,681.80
2022-12-17T23:33:18.394Z,669.58
2022-12-17T23:35:44.775Z,661.85
2022-12-17T23:38:11.089Z,640.70
2022-12-17T23:40:37.407Z,636.10
2022-12-17T23:43:03.846Z,627.72
2022-12-17T23:45:30.579Z,608.95
2022-12-17T23:47:57.461Z,604.22
2022-12-17T23:50:24.104Z,592.90
2022-12-17T23:52:50.418Z,570.65
2022-12-17T23:55:17.173Z,580.00
2022-12-17T23:57:43.575Z,560.90
